sensor_id;sensor_type;location;lat;lon;timestamp;P1;durP1;ratioP1;P2;durP2;ratioP2
37379;SDS011;23252;-33.992;18.480;2023-04-15T00:01:12;19.33;;;2.65;;
37379;SDS011;23252;-33.992;18.480;2023-04-15T00:03:43;13.02;;;2.75;;
37379;SDS011;23252;-33.992;18.480;2023-04-15T00:06:10;24.10;;;3.45;;
37379;SDS011;23252;-33.992;18.480;2023-04-15T00:08:38;14.82;;;2.83;;
37379;SDS011;23252;-33.992;18.480;2023-04-15T00:11:04;23.13;;;2.55;;
37379;SDS011;23252;-33.992;18.480;2023-04-15T00:13:31;17.53;;;2.37;;
37379;SDS011;23252;-33.992;18.480;2023-04-15T00:15:59;13.63;;;2.38;;
37379;SDS011;23252;-33.992;18.480;2023-04-15T00:18:26;16.33;;;2.97;;
37379;SDS011;23252;-33.992;18.480;2023-04-15T00:20:54;14.82;;;2.20;;
37379;SDS011;23252;-33.992;18.480;2023-04-15T00:23:20;19.05;;;2.80;;
37379;SDS011;23252;-33.992;18.480;2023-04-15T00:25:47;17.57;;;2.33;;
37379;SDS011;23252;-33.992;18.480;2023-04-15T00:28:14;19.55;;;2.92;;
37379;SDS011;23252;-33.992;18.480;2023-04-15T00:30:40;17.17;;;2.55;;
37379;SDS011;23252;-33.992;18.480;2023-04-15T00:33:07;16.60;;;2.15;;
37379;SDS011;23252;-33.992;18.480;2023-04-15T00:35:34;18.67;;;2.30;;
37379;SDS011;23252;-33.992;18.480;2023-04-15T00:38:04;12.70;;;2.05;;
37379;SDS011;23252;-33.992;18.480;2023-04-15T00:40:34;14.90;;;2.72;;
37379;SDS011;23252;-33.992;18.480;2023-04-15T00:43:02;15.40;;;2.50;;
37379;SDS011;23252;-33.992;18.480;2023-04-15T00:45:32;17.60;;;2.78;;
37379;SDS011;23252;-33.992;18.480;2023-04-15T00:47:59;21.60;;;2.47;;
37379;SDS011;23252;-33.992;18.480;2023-04-15T00:50:25;18.45;;;2.22;;
37379;SDS011;23252;-33.992;18.480;2023-04-15T00:52:52;12.00;;;1.93;;
37379;SDS011;23252;-33.992;18.480;2023-04-15T00:55:18;14.55;;;2.17;;
37379;SDS011;23252;-33.992;18.480;2023-04-15T00:57:45;12.80;;;2.30;;
37379;SDS011;23252;-33.992;18.480;2023-04-15T01:00:12;20.80;;;2.23;;
37379;SDS011;23252;-33.992;18.480;2023-04-15T01:02:38;22.55;;;2.45;;
37379;SDS011;23252;-33.992;18.480;2023-04-15T01:05:05;14.02;;;1.88;;
37379;SDS011;23252;-33.992;18.480;2023-04-15T01:07:32;20.00;;;2.50;;
37379;SDS011;23252;-33.992;18.480;2023-04-15T01:09:59;12.80;;;2.17;;
37379;SDS011;23252;-33.992;18.480;2023-04-15T01:12:26;15.63;;;2.20;;
37379;SDS011;23252;-33.992;18.480;2023-04-15T01:14:54;21.75;;;3.42;;
37379;SDS011;23252;-33.992;18.480;2023-04-15T01:17:21;14.98;;;2.20;;
37379;SDS011;23252;-33.992;18.480;2023-04-15T01:19:49;18.60;;;2.45;;
37379;SDS011;23252;-33.992;18.480;2023-04-15T01:22:16;25.05;;;3.30;;
37379;SDS011;23252;-33.992;18.480;2023-04-15T01:24:48;14.40;;;2.88;;
37379;SDS011;23252;-33.992;18.480;2023-04-15T01:27:21;21.83;;;3.17;;
37379;SDS011;23252;-33.992;18.480;2023-04-15T01:29:48;23.70;;;2.65;;
37379;SDS011;23252;-33.992;18.480;2023-04-15T01:32:14;24.27;;;3.65;;
37379;SDS011;23252;-33.992;18.480;2023-04-15T01:34:41;20.07;;;2.53;;
37379;SDS011;23252;-33.992;18.480;2023-04-15T01:37:07;16.60;;;2.70;;
37379;SDS011;23252;-33.992;18.480;2023-04-15T01:39:34;10.20;;;1.90;;
37379;SDS011;23252;-33.992;18.480;2023-04-15T01:42:00;14.38;;;2.38;;
37379;SDS011;23252;-33.992;18.480;2023-04-15T01:44:28;17.50;;;2.65;;
37379;SDS011;23252;-33.992;18.480;2023-04-15T01:46:54;14.18;;;2.13;;
37379;SDS011;23252;-33.992;18.480;2023-04-15T01:49:21;17.00;;;2.53;;
37379;SDS011;23252;-33.992;18.480;2023-04-15T01:51:48;19.35;;;2.45;;
37379;SDS011;23252;-33.992;18.480;2023-04-15T01:54:14;14.00;;;1.63;;
37379;SDS011;23252;-33.992;18.480;2023-04-15T01:56:41;18.48;;;2.20;;
37379;SDS011;23252;-33.992;18.480;2023-04-15T01:59:08;15.70;;;2.65;;
37379;SDS011;23252;-33.992;18.480;2023-04-15T02:01:34;16.67;;;2.13;;
37379;SDS011;23252;-33.992;18.480;2023-04-15T06:15:41;12.10;;;2.47;;
37379;SDS011;23252;-33.992;18.480;2023-04-15T06:18:08;21.98;;;2.67;;
37379;SDS011;23252;-33.992;18.480;2023-04-15T06:20:35;24.02;;;3.17;;
37379;SDS011;23252;-33.992;18.480;2023-04-15T06:23:02;19.00;;;2.85;;
37379;SDS011;23252;-33.992;18.480;2023-04-15T06:25:29;25.38;;;3.05;;
37379;SDS011;23252;-33.992;18.480;2023-04-15T06:27:55;24.10;;;3.20;;
37379;SDS011;23252;-33.992;18.480;2023-04-15T06:30:22;13.13;;;2.45;;
37379;SDS011;23252;-33.992;18.480;2023-04-15T06:32:49;16.07;;;2.30;;
37379;SDS011;23252;-33.992;18.480;2023-04-15T06:35:15;24.37;;;2.93;;
37379;SDS011;23252;-33.992;18.480;2023-04-15T06:37:42;10.55;;;2.35;;
37379;SDS011;23252;-33.992;18.480;2023-04-15T06:40:08;18.17;;;3.00;;
37379;SDS011;23252;-33.992;18.480;2023-04-15T06:42:35;14.80;;;2.83;;
37379;SDS011;23252;-33.992;18.480;2023-04-15T06:45:02;17.67;;;2.75;;
37379;SDS011;23252;-33.992;18.480;2023-04-15T06:47:29;16.98;;;2.10;;
37379;SDS011;23252;-33.992;18.480;2023-04-15T06:49:56;20.05;;;2.60;;
37379;SDS011;23252;-33.992;18.480;2023-04-15T06:52:23;17.92;;;2.97;;
37379;SDS011;23252;-33.992;18.480;2023-04-15T06:54:49;18.07;;;2.63;;
37379;SDS011;23252;-33.992;18.480;2023-04-15T06:57:16;18.53;;;2.03;;
37379;SDS011;23252;-33.992;18.480;2023-04-15T06:59:42;19.70;;;2.67;;
37379;SDS011;23252;-33.992;18.480;2023-04-15T07:02:09;19.98;;;3.42;;
37379;SDS011;23252;-33.992;18.480;2023-04-15T07:04:38;16.98;;;2.72;;
37379;SDS011;23252;-33.992;18.480;2023-04-15T07:07:05;14.90;;;2.33;;
37379;SDS011;23252;-33.992;18.480;2023-04-15T07:11:58;18.37;;;2.80;;
37379;SDS011;23252;-33.992;18.480;2023-04-15T07:14:25;16.40;;;1.90;;
37379;SDS011;23252;-33.992;18.480;2023-04-15T07:16:52;20.30;;;2.83;;
37379;SDS011;23252;-33.992;18.480;2023-04-15T07:19:18;16.23;;;2.47;;
37379;SDS011;23252;-33.992;18.480;2023-04-15T07:21:45;18.57;;;2.27;;
37379;SDS011;23252;-33.992;18.480;2023-04-15T07:24:12;16.10;;;2.25;;
37379;SDS011;23252;-33.992;18.480;2023-04-15T07:26:42;16.27;;;2.22;;
37379;SDS011;23252;-33.992;18.480;2023-04-15T07:29:10;15.70;;;2.08;;
37379;SDS011;23252;-33.992;18.480;2023-04-15T07:31:36;17.58;;;2.33;;
37379;SDS011;23252;-33.992;18.480;2023-04-15T07:34:06;12.20;;;2.10;;
37379;SDS011;23252;-33.992;18.480;2023-04-15T07:36:33;16.25;;;2.85;;
37379;SDS011;23252;-33.992;18.480;2023-04-15T07:38:59;16.23;;;2.03;;
37379;SDS011;23252;-33.992;18.480;2023-04-15T07:41:27;17.63;;;2.15;;
37379;SDS011;23252;-33.992;18.480;2023-04-15T07:43:55;11.85;;;2.03;;
37379;SDS011;23252;-33.992;18.480;2023-04-15T07:46:24;21.50;;;3.00;;
37379;SDS011;23252;-33.992;18.480;2023-04-15T07:48:54;17.50;;;2.20;;
37379;SDS011;23252;-33.992;18.480;2023-04-15T07:51:21;17.02;;;2.55;;
37379;SDS011;23252;-33.992;18.480;2023-04-15T07:53:48;13.40;;;2.13;;
37379;SDS011;23252;-33.992;18.480;2023-04-15T07:56:15;17.42;;;2.05;;
37379;SDS011;23252;-33.992;18.480;2023-04-15T07:58:41;12.35;;;1.88;;
37379;SDS011;23252;-33.992;18.480;2023-04-15T08:01:08;13.18;;;2.50;;
37379;SDS011;23252;-33.992;18.480;2023-04-15T08:03:37;15.75;;;1.85;;
37379;SDS011;23252;-33.992;18.480;2023-04-15T08:06:04;17.05;;;2.60;;
37379;SDS011;23252;-33.992;18.480;2023-04-15T08:08:31;18.83;;;2.28;;
37379;SDS011;23252;-33.992;18.480;2023-04-15T08:10:58;14.97;;;2.03;;
37379;SDS011;23252;-33.992;18.480;2023-04-15T08:13:24;13.35;;;2.33;;
37379;SDS011;23252;-33.992;18.480;2023-04-15T08:16:15;13.35;;;1.92;;
37379;SDS011;23252;-33.992;18.480;2023-04-15T08:18:41;15.73;;;2.38;;
37379;SDS011;23252;-33.992;18.480;2023-04-15T08:21:08;11.43;;;2.50;;
37379;SDS011;23252;-33.992;18.480;2023-04-15T08:23:35;12.00;;;1.60;;
37379;SDS011;23252;-33.992;18.480;2023-04-15T08:28:29;13.83;;;2.00;;
37379;SDS011;23252;-33.992;18.480;2023-04-15T08:30:55;19.20;;;2.63;;
37379;SDS011;23252;-33.992;18.480;2023-04-15T08:33:22;16.67;;;2.38;;
37379;SDS011;23252;-33.992;18.480;2023-04-15T08:35:48;14.73;;;2.77;;
37379;SDS011;23252;-33.992;18.480;2023-04-15T08:38:15;19.88;;;2.63;;
37379;SDS011;23252;-33.992;18.480;2023-04-15T08:40:45;22.77;;;3.55;;
37379;SDS011;23252;-33.992;18.480;2023-04-15T08:43:14;17.30;;;2.15;;
37379;SDS011;23252;-33.992;18.480;2023-04-15T08:45:49;12.23;;;2.67;;
37379;SDS011;23252;-33.992;18.480;2023-04-15T08:48:17;13.48;;;2.17;;
37379;SDS011;23252;-33.992;18.480;2023-04-15T08:50:44;10.30;;;1.60;;
37379;SDS011;23252;-33.992;18.480;2023-04-15T08:53:11;18.20;;;2.30;;
37379;SDS011;23252;-33.992;18.480;2023-04-15T08:55:41;19.15;;;2.25;;
37379;SDS011;23252;-33.992;18.480;2023-04-15T08:58:13;12.95;;;2.40;;
37379;SDS011;23252;-33.992;18.480;2023-04-15T09:00:41;13.95;;;2.22;;
37379;SDS011;23252;-33.992;18.480;2023-04-15T09:03:07;16.25;;;2.33;;
37379;SDS011;23252;-33.992;18.480;2023-04-15T09:05:35;12.23;;;1.65;;
37379;SDS011;23252;-33.992;18.480;2023-04-15T09:08:02;19.92;;;2.30;;
37379;SDS011;23252;-33.992;18.480;2023-04-15T09:10:30;12.23;;;2.08;;
37379;SDS011;23252;-33.992;18.480;2023-04-15T09:15:24;16.63;;;2.75;;
37379;SDS011;23252;-33.992;18.480;2023-04-15T09:17:54;12.13;;;2.17;;
37379;SDS011;23252;-33.992;18.480;2023-04-15T09:20:21;9.98;;;2.08;;
37379;SDS011;23252;-33.992;18.480;2023-04-15T09:22:48;9.15;;;1.70;;
37379;SDS011;23252;-33.992;18.480;2023-04-15T09:27:59;13.68;;;2.65;;
37379;SDS011;23252;-33.992;18.480;2023-04-15T09:30:27;13.63;;;2.58;;
37379;SDS011;23252;-33.992;18.480;2023-04-15T09:32:57;10.50;;;2.28;;
37379;SDS011;23252;-33.992;18.480;2023-04-15T09:35:25;11.95;;;2.38;;
37379;SDS011;23252;-33.992;18.480;2023-04-15T09:37:53;14.23;;;3.35;;
37379;SDS011;23252;-33.992;18.480;2023-04-15T09:40:31;13.85;;;2.13;;
37379;SDS011;23252;-33.992;18.480;2023-04-15T09:43:02;12.30;;;2.03;;
37379;SDS011;23252;-33.992;18.480;2023-04-15T09:45:30;13.68;;;2.00;;
37379;SDS011;23252;-33.992;18.480;2023-04-15T09:48:19;14.52;;;2.15;;
37379;SDS011;23252;-33.992;18.480;2023-04-15T09:50:45;12.98;;;2.17;;
37379;SDS011;23252;-33.992;18.480;2023-04-15T09:53:16;9.93;;;1.95;;
37379;SDS011;23252;-33.992;18.480;2023-04-15T09:55:45;15.43;;;2.80;;
37379;SDS011;23252;-33.992;18.480;2023-04-15T09:58:19;13.75;;;2.33;;
37379;SDS011;23252;-33.992;18.480;2023-04-15T10:00:48;13.02;;;2.22;;
37379;SDS011;23252;-33.992;18.480;2023-04-15T10:03:17;11.90;;;2.33;;
37379;SDS011;23252;-33.992;18.480;2023-04-15T10:05:49;9.77;;;1.95;;
37379;SDS011;23252;-33.992;18.480;2023-04-15T10:08:18;15.05;;;1.80;;
37379;SDS011;23252;-33.992;18.480;2023-04-15T10:10:47;11.38;;;1.77;;
37379;SDS011;23252;-33.992;18.480;2023-04-15T10:13:16;16.25;;;2.22;;
37379;SDS011;23252;-33.992;18.480;2023-04-15T10:15:58;15.65;;;2.33;;
37379;SDS011;23252;-33.992;18.480;2023-04-15T10:18:28;15.73;;;2.78;;
37379;SDS011;23252;-33.992;18.480;2023-04-15T10:21:00;8.32;;;1.50;;
37379;SDS011;23252;-33.992;18.480;2023-04-15T10:23:26;13.45;;;2.03;;
37379;SDS011;23252;-33.992;18.480;2023-04-15T10:25:53;11.35;;;2.85;;
37379;SDS011;23252;-33.992;18.480;2023-04-15T10:28:20;13.82;;;2.20;;
37379;SDS011;23252;-33.992;18.480;2023-04-15T10:30:47;13.52;;;2.75;;
37379;SDS011;23252;-33.992;18.480;2023-04-15T10:33:14;14.65;;;3.42;;
37379;SDS011;23252;-33.992;18.480;2023-04-15T10:35:44;11.07;;;2.03;;
37379;SDS011;23252;-33.992;18.480;2023-04-15T10:43:48;19.95;;;2.95;;
37379;SDS011;23252;-33.992;18.480;2023-04-15T10:46:23;12.63;;;2.15;;
37379;SDS011;23252;-33.992;18.480;2023-04-15T10:51:46;10.93;;;1.95;;
37379;SDS011;23252;-33.992;18.480;2023-04-15T10:59:35;13.48;;;1.85;;
37379;SDS011;23252;-33.992;18.480;2023-04-15T11:02:23;14.15;;;2.63;;
37379;SDS011;23252;-33.992;18.480;2023-04-15T11:05:12;13.18;;;2.35;;
37379;SDS011;23252;-33.992;18.480;2023-04-15T11:12:45;15.52;;;2.50;;
37379;SDS011;23252;-33.992;18.480;2023-04-15T11:17:57;13.65;;;2.00;;
37379;SDS011;23252;-33.992;18.480;2023-04-15T11:20:25;12.98;;;2.88;;
37379;SDS011;23252;-33.992;18.480;2023-04-15T11:22:52;14.25;;;2.38;;
37379;SDS011;23252;-33.992;18.480;2023-04-15T11:25:23;8.73;;;1.38;;
37379;SDS011;23252;-33.992;18.480;2023-04-15T11:27:51;9.93;;;2.28;;
37379;SDS011;23252;-33.992;18.480;2023-04-15T11:30:22;14.38;;;2.55;;
37379;SDS011;23252;-33.992;18.480;2023-04-15T11:32:52;10.43;;;2.20;;
37379;SDS011;23252;-33.992;18.480;2023-04-15T11:35:19;10.55;;;2.28;;
37379;SDS011;23252;-33.992;18.480;2023-04-15T11:37:47;12.75;;;2.50;;
37379;SDS011;23252;-33.992;18.480;2023-04-15T11:40:15;11.45;;;2.03;;
37379;SDS011;23252;-33.992;18.480;2023-04-15T11:42:43;11.20;;;1.88;;
37379;SDS011;23252;-33.992;18.480;2023-04-15T11:47:37;12.73;;;2.03;;
37379;SDS011;23252;-33.992;18.480;2023-04-15T11:52:51;9.23;;;2.07;;
37379;SDS011;23252;-33.992;18.480;2023-04-15T11:55:28;11.82;;;2.95;;
37379;SDS011;23252;-33.992;18.480;2023-04-15T12:00:36;10.68;;;1.95;;
37379;SDS011;23252;-33.992;18.480;2023-04-15T12:03:12;12.60;;;2.30;;
37379;SDS011;23252;-33.992;18.480;2023-04-15T14:15:00;11.25;;;2.72;;
37379;SDS011;23252;-33.992;18.480;2023-04-15T14:17:27;14.73;;;2.55;;
37379;SDS011;23252;-33.992;18.480;2023-04-15T14:19:54;18.07;;;2.47;;
37379;SDS011;23252;-33.992;18.480;2023-04-15T14:22:20;17.87;;;2.73;;
37379;SDS011;23252;-33.992;18.480;2023-04-15T14:24:47;11.97;;;2.30;;
37379;SDS011;23252;-33.992;18.480;2023-04-15T14:27:13;17.00;;;3.10;;
37379;SDS011;23252;-33.992;18.480;2023-04-15T14:29:40;15.75;;;2.70;;
37379;SDS011;23252;-33.992;18.480;2023-04-15T14:32:07;16.37;;;2.60;;
37379;SDS011;23252;-33.992;18.480;2023-04-15T14:34:33;16.13;;;2.40;;
37379;SDS011;23252;-33.992;18.480;2023-04-15T14:37:03;8.57;;;1.97;;
37379;SDS011;23252;-33.992;18.480;2023-04-15T14:39:30;17.42;;;2.65;;
37379;SDS011;23252;-33.992;18.480;2023-04-15T14:41:56;18.00;;;2.50;;
37379;SDS011;23252;-33.992;18.480;2023-04-15T14:44:23;16.80;;;2.55;;
37379;SDS011;23252;-33.992;18.480;2023-04-15T14:46:50;14.20;;;2.70;;
37379;SDS011;23252;-33.992;18.480;2023-04-15T14:49:17;18.10;;;2.63;;
37379;SDS011;23252;-33.992;18.480;2023-04-15T14:51:44;19.23;;;2.90;;
37379;SDS011;23252;-33.992;18.480;2023-04-15T14:54:11;19.20;;;3.38;;
37379;SDS011;23252;-33.992;18.480;2023-04-15T14:56:37;14.35;;;2.15;;
37379;SDS011;23252;-33.992;18.480;2023-04-15T14:59:04;13.90;;;2.03;;
37379;SDS011;23252;-33.992;18.480;2023-04-15T15:01:30;14.80;;;2.83;;
37379;SDS011;23252;-33.992;18.480;2023-04-15T15:03:58;17.63;;;2.53;;
37379;SDS011;23252;-33.992;18.480;2023-04-15T15:06:24;15.00;;;2.50;;
37379;SDS011;23252;-33.992;18.480;2023-04-15T15:08:51;16.93;;;3.50;;
37379;SDS011;23252;-33.992;18.480;2023-04-15T15:11:17;13.73;;;2.20;;
37379;SDS011;23252;-33.992;18.480;2023-04-15T15:13:44;16.47;;;2.57;;
37379;SDS011;23252;-33.992;18.480;2023-04-15T15:16:10;18.45;;;2.85;;
37379;SDS011;23252;-33.992;18.480;2023-04-15T15:18:37;12.27;;;2.35;;
37379;SDS011;23252;-33.992;18.480;2023-04-15T15:21:04;17.57;;;2.50;;
37379;SDS011;23252;-33.992;18.480;2023-04-15T15:23:30;16.75;;;3.60;;
37379;SDS011;23252;-33.992;18.480;2023-04-15T15:25:57;16.17;;;4.20;;
37379;SDS011;23252;-33.992;18.480;2023-04-15T15:28:24;19.55;;;3.65;;
37379;SDS011;23252;-33.992;18.480;2023-04-15T15:30:51;17.45;;;3.42;;
37379;SDS011;23252;-33.992;18.480;2023-04-15T15:33:17;18.57;;;3.30;;
37379;SDS011;23252;-33.992;18.480;2023-04-15T15:38:11;13.55;;;2.63;;
37379;SDS011;23252;-33.992;18.480;2023-04-15T15:40:38;15.95;;;4.07;;
37379;SDS011;23252;-33.992;18.480;2023-04-15T15:43:04;13.13;;;2.92;;
37379;SDS011;23252;-33.992;18.480;2023-04-15T15:45:31;19.60;;;4.80;;
37379;SDS011;23252;-33.992;18.480;2023-04-15T15:47:57;16.37;;;3.50;;
37379;SDS011;23252;-33.992;18.480;2023-04-15T15:50:24;23.88;;;4.30;;
37379;SDS011;23252;-33.992;18.480;2023-04-15T15:52:50;21.83;;;4.37;;
37379;SDS011;23252;-33.992;18.480;2023-04-15T15:55:17;17.90;;;3.07;;
37379;SDS011;23252;-33.992;18.480;2023-04-15T15:57:44;17.85;;;3.28;;
37379;SDS011;23252;-33.992;18.480;2023-04-15T16:00:10;18.05;;;3.03;;
37379;SDS011;23252;-33.992;18.480;2023-04-15T16:02:37;20.42;;;3.15;;
37379;SDS011;23252;-33.992;18.480;2023-04-15T16:05:04;12.70;;;2.67;;
37379;SDS011;23252;-33.992;18.480;2023-04-15T16:07:30;16.42;;;3.55;;
37379;SDS011;23252;-33.992;18.480;2023-04-15T16:09:57;15.33;;;4.23;;
37379;SDS011;23252;-33.992;18.480;2023-04-15T16:12:23;27.02;;;9.35;;
37379;SDS011;23252;-33.992;18.480;2023-04-15T16:14:50;21.93;;;4.73;;
37379;SDS011;23252;-33.992;18.480;2023-04-15T16:17:16;25.52;;;7.07;;
37379;SDS011;23252;-33.992;18.480;2023-04-15T16:19:43;18.07;;;4.40;;
37379;SDS011;23252;-33.992;18.480;2023-04-15T16:22:10;12.38;;;3.08;;
37379;SDS011;23252;-33.992;18.480;2023-04-15T16:24:36;22.13;;;4.43;;
37379;SDS011;23252;-33.992;18.480;2023-04-15T16:27:03;15.83;;;5.40;;
37379;SDS011;23252;-33.992;18.480;2023-04-15T16:29:29;37.57;;;17.17;;
37379;SDS011;23252;-33.992;18.480;2023-04-15T16:31:56;21.90;;;6.20;;
37379;SDS011;23252;-33.992;18.480;2023-04-15T16:34:22;22.07;;;6.07;;
37379;SDS011;23252;-33.992;18.480;2023-04-15T16:36:49;21.08;;;4.30;;
37379;SDS011;23252;-33.992;18.480;2023-04-15T16:39:15;15.47;;;3.30;;
37379;SDS011;23252;-33.992;18.480;2023-04-15T16:41:43;16.25;;;2.95;;
37379;SDS011;23252;-33.992;18.480;2023-04-15T16:44:10;19.85;;;2.78;;
37379;SDS011;23252;-33.992;18.480;2023-04-15T16:46:36;14.27;;;2.97;;
37379;SDS011;23252;-33.992;18.480;2023-04-15T16:49:03;15.67;;;3.33;;
37379;SDS011;23252;-33.992;18.480;2023-04-15T16:51:29;15.02;;;2.88;;
37379;SDS011;23252;-33.992;18.480;2023-04-15T16:53:56;19.65;;;2.65;;
37379;SDS011;23252;-33.992;18.480;2023-04-15T16:56:23;19.35;;;3.72;;
37379;SDS011;23252;-33.992;18.480;2023-04-15T16:58:49;23.80;;;3.90;;
37379;SDS011;23252;-33.992;18.480;2023-04-15T17:01:16;20.30;;;3.23;;
37379;SDS011;23252;-33.992;18.480;2023-04-15T17:03:42;16.83;;;3.80;;
37379;SDS011;23252;-33.992;18.480;2023-04-15T17:06:10;21.83;;;3.60;;
37379;SDS011;23252;-33.992;18.480;2023-04-15T17:08:36;38.63;;;15.07;;
37379;SDS011;23252;-33.992;18.480;2023-04-15T17:11:03;103.60;;;50.83;;
37379;SDS011;23252;-33.992;18.480;2023-04-15T17:13:29;83.13;;;42.43;;
37379;SDS011;23252;-33.992;18.480;2023-04-15T17:15:55;48.80;;;18.20;;
37379;SDS011;23252;-33.992;18.480;2023-04-15T17:18:22;35.53;;;14.25;;
37379;SDS011;23252;-33.992;18.480;2023-04-15T17:20:49;25.23;;;9.05;;
37379;SDS011;23252;-33.992;18.480;2023-04-15T17:23:15;43.20;;;21.60;;
37379;SDS011;23252;-33.992;18.480;2023-04-15T17:25:42;23.15;;;6.20;;
37379;SDS011;23252;-33.992;18.480;2023-04-15T17:28:08;19.50;;;4.00;;
37379;SDS011;23252;-33.992;18.480;2023-04-15T17:30:35;16.20;;;4.45;;
37379;SDS011;23252;-33.992;18.480;2023-04-15T17:33:07;19.35;;;3.90;;
37379;SDS011;23252;-33.992;18.480;2023-04-15T17:35:34;14.63;;;2.70;;
37379;SDS011;23252;-33.992;18.480;2023-04-15T17:38:00;17.63;;;3.13;;
37379;SDS011;23252;-33.992;18.480;2023-04-15T17:40:29;16.95;;;3.35;;
37379;SDS011;23252;-33.992;18.480;2023-04-15T17:42:56;18.55;;;3.53;;
37379;SDS011;23252;-33.992;18.480;2023-04-15T17:45:23;16.10;;;3.03;;
37379;SDS011;23252;-33.992;18.480;2023-04-15T17:47:49;16.80;;;3.73;;
37379;SDS011;23252;-33.992;18.480;2023-04-15T17:50:16;13.63;;;3.07;;
37379;SDS011;23252;-33.992;18.480;2023-04-15T17:52:42;12.57;;;2.22;;
37379;SDS011;23252;-33.992;18.480;2023-04-15T17:55:09;17.00;;;2.80;;
37379;SDS011;23252;-33.992;18.480;2023-04-15T17:57:35;15.80;;;3.10;;
37379;SDS011;23252;-33.992;18.480;2023-04-15T18:00:02;17.43;;;3.63;;
37379;SDS011;23252;-33.992;18.480;2023-04-15T18:02:30;13.48;;;2.80;;
37379;SDS011;23252;-33.992;18.480;2023-04-15T18:04:56;17.83;;;2.93;;
37379;SDS011;23252;-33.992;18.480;2023-04-15T22:16:06;20.35;;;3.50;;
37379;SDS011;23252;-33.992;18.480;2023-04-15T22:18:32;24.00;;;3.17;;
37379;SDS011;23252;-33.992;18.480;2023-04-15T22:20:59;23.50;;;3.07;;
37379;SDS011;23252;-33.992;18.480;2023-04-15T22:23:26;22.73;;;3.20;;
37379;SDS011;23252;-33.992;18.480;2023-04-15T22:25:53;16.73;;;2.60;;
37379;SDS011;23252;-33.992;18.480;2023-04-15T22:28:19;20.17;;;2.78;;
37379;SDS011;23252;-33.992;18.480;2023-04-15T22:30:46;20.53;;;3.67;;
37379;SDS011;23252;-33.992;18.480;2023-04-15T22:33:13;23.07;;;3.53;;
37379;SDS011;23252;-33.992;18.480;2023-04-15T22:35:39;14.05;;;2.42;;
37379;SDS011;23252;-33.992;18.480;2023-04-15T22:38:06;13.45;;;3.00;;
37379;SDS011;23252;-33.992;18.480;2023-04-15T22:40:32;26.52;;;4.53;;
37379;SDS011;23252;-33.992;18.480;2023-04-15T22:42:59;16.50;;;3.30;;
37379;SDS011;23252;-33.992;18.480;2023-04-15T22:45:25;15.30;;;2.40;;
37379;SDS011;23252;-33.992;18.480;2023-04-15T22:47:52;14.37;;;2.53;;
37379;SDS011;23252;-33.992;18.480;2023-04-15T22:50:18;14.40;;;2.23;;
37379;SDS011;23252;-33.992;18.480;2023-04-15T22:52:45;21.98;;;3.38;;
37379;SDS011;23252;-33.992;18.480;2023-04-15T22:55:12;15.90;;;2.28;;
37379;SDS011;23252;-33.992;18.480;2023-04-15T22:57:39;13.60;;;2.20;;
37379;SDS011;23252;-33.992;18.480;2023-04-15T23:00:06;17.60;;;3.30;;
37379;SDS011;23252;-33.992;18.480;2023-04-15T23:02:33;15.65;;;3.13;;
37379;SDS011;23252;-33.992;18.480;2023-04-15T23:04:59;14.77;;;2.35;;
37379;SDS011;23252;-33.992;18.480;2023-04-15T23:07:26;17.67;;;2.25;;
37379;SDS011;23252;-33.992;18.480;2023-04-15T23:09:52;15.33;;;2.87;;
37379;SDS011;23252;-33.992;18.480;2023-04-15T23:12:19;15.40;;;2.53;;
37379;SDS011;23252;-33.992;18.480;2023-04-15T23:14:45;12.00;;;2.60;;
37379;SDS011;23252;-33.992;18.480;2023-04-15T23:17:12;20.73;;;2.90;;
37379;SDS011;23252;-33.992;18.480;2023-04-15T23:19:38;15.93;;;2.40;;
37379;SDS011;23252;-33.992;18.480;2023-04-15T23:22:05;20.73;;;2.97;;
37379;SDS011;23252;-33.992;18.480;2023-04-15T23:24:34;17.00;;;2.40;;
37379;SDS011;23252;-33.992;18.480;2023-04-15T23:27:01;10.88;;;2.08;;
37379;SDS011;23252;-33.992;18.480;2023-04-15T23:29:28;15.60;;;2.80;;
37379;SDS011;23252;-33.992;18.480;2023-04-15T23:31:55;14.48;;;2.38;;
37379;SDS011;23252;-33.992;18.480;2023-04-15T23:34:22;11.95;;;1.98;;
37379;SDS011;23252;-33.992;18.480;2023-04-15T23:36:48;17.17;;;2.40;;
37379;SDS011;23252;-33.992;18.480;2023-04-15T23:39:15;14.27;;;2.03;;
37379;SDS011;23252;-33.992;18.480;2023-04-15T23:41:41;12.73;;;2.38;;
37379;SDS011;23252;-33.992;18.480;2023-04-15T23:44:07;14.75;;;2.47;;
37379;SDS011;23252;-33.992;18.480;2023-04-15T23:46:34;17.07;;;2.43;;
37379;SDS011;23252;-33.992;18.480;2023-04-15T23:49:00;19.23;;;3.55;;
37379;SDS011;23252;-33.992;18.480;2023-04-15T23:51:27;16.27;;;2.70;;
37379;SDS011;23252;-33.992;18.480;2023-04-15T23:53:53;18.60;;;2.60;;
37379;SDS011;23252;-33.992;18.480;2023-04-15T23:56:20;17.95;;;4.13;;
37379;SDS011;23252;-33.992;18.480;2023-04-15T23:58:46;13.90;;;2.88;;
